createdAt,value
2023-03-08T00:01:15.996Z,99473.73
2023-03-08T00:03:44.922Z,99474.25
2023-03-08T00:06:13.725Z,99477.87
2023-03-08T00:08:46.340Z,99482.67
2023-03-08T00:11:15.742Z,99485.40
2023-03-08T00:13:44.276Z,99482.83
2023-03-08T00:16:12.686Z,99482.31
2023-03-08T00:18:43.701Z,99481.45
2023-03-08T00:21:13.172Z,99479.58
2023-03-08T00:23:45.321Z,99482.13
2023-03-08T00:26:13.626Z,99480.41
2023-03-08T00:28:42.270Z,99481.45
2023-03-08T00:31:11.932Z,99475.08
2023-03-08T00:33:40.919Z,99476.78
2023-03-08T00:36:14.088Z,99477.10
2023-03-08T00:38:43.178Z,99479.83
2023-03-08T00:41:11.464Z,99482.72
2023-03-08T00:43:41.507Z,99483.06
2023-03-08T00:46:09.936Z,99484.42
2023-03-08T00:48:38.094Z,99487.02
2023-03-08T00:51:06.944Z,99486.19
2023-03-08T00:53:35.229Z,99496.13
2023-03-08T00:56:03.564Z,99497.18
2023-03-08T00:58:33.497Z,99501.15
2023-03-08T01:01:04.543Z,99501.16
2023-03-08T01:03:33.674Z,99500.48
2023-03-08T01:06:09.827Z,99495.02
2023-03-08T01:08:40.498Z,99498.44
2023-03-08T01:11:13.934Z,99497.07
2023-03-08T01:13:42.270Z,99494.66
2023-03-08T01:16:20.476Z,99493.80
2023-03-08T01:18:50.700Z,99491.38
2023-03-08T01:21:21.277Z,99493.61
2023-03-08T01:23:49.757Z,99496.86
2023-03-08T01:26:18.869Z,99496.34
2023-03-08T01:28:48.194Z,99496.51
2023-03-08T01:31:17.354Z,99500.79
2023-03-08T01:33:46.932Z,99503.68
2023-03-08T01:36:17.246Z,99507.10
2023-03-08T01:38:46.077Z,99505.20
2023-03-08T01:41:25.042Z,99504.52
2023-03-08T01:43:53.534Z,99500.58
2023-03-08T01:46:28.937Z,99496.27
2023-03-08T01:49:08.398Z,99507.77
2023-03-08T01:51:40.121Z,99513.27
2023-03-08T01:54:09.924Z,99518.92
2023-03-08T01:56:39.056Z,99526.80
2023-03-08T01:59:08.058Z,99524.41
2023-03-08T02:01:36.751Z,99527.48
2023-03-08T02:04:05.494Z,99518.75
2023-03-08T02:06:38.263Z,99516.71
2023-03-08T02:09:06.840Z,99520.49
2023-03-08T02:11:35.763Z,99520.15
2023-03-08T02:14:04.564Z,99518.46
2023-03-08T02:16:33.953Z,99513.17
2023-03-08T02:19:03.628Z,99516.79
2023-03-08T02:21:33.332Z,99518.86
2023-03-08T02:24:17.540Z,99524.34
2023-03-08T02:26:47.739Z,99521.95
2023-03-08T02:29:16.000Z,99522.45
2023-03-08T02:31:44.564Z,99520.73
2023-03-08T02:34:12.998Z,99519.52
2023-03-08T02:36:41.146Z,99514.20
2023-03-08T02:39:09.501Z,99515.73
2023-03-08T02:41:38.999Z,99513.52
2023-03-08T02:44:07.496Z,99512.30
2023-03-08T02:46:37.417Z,99515.55
2023-03-08T02:49:06.129Z,99512.29
2023-03-08T02:51:34.889Z,99508.16
2023-03-08T02:54:03.492Z,99506.45
2023-03-08T02:56:32.055Z,99508.34
2023-03-08T02:59:00.526Z,99508.32
2023-03-08T03:01:29.056Z,99505.91
2023-03-08T03:03:57.635Z,99506.60
2023-03-08T03:06:25.860Z,99505.90
2023-03-08T03:08:56.988Z,99504.54
2023-03-08T03:11:25.343Z,99500.92
2023-03-08T03:13:56.632Z,99499.71
2023-03-08T03:16:26.357Z,99497.81
2023-03-08T03:18:54.962Z,99502.24
2023-03-08T03:21:23.734Z,99500.88
2023-03-08T03:23:56.113Z,99504.29
2023-03-08T03:26:30.280Z,99510.45
2023-03-08T03:28:59.167Z,99519.38
2023-03-08T03:31:30.094Z,99519.04
2023-03-08T03:33:58.807Z,99528.47
2023-03-08T03:36:27.918Z,99521.28
2023-03-08T03:38:56.441Z,99523.52
2023-03-08T03:41:24.674Z,99520.25
2023-03-08T03:44:01.847Z,99516.14
2023-03-08T03:46:36.396Z,99508.94
2023-03-08T03:49:05.739Z,99511.34
2023-03-08T03:51:37.271Z,99504.64
2023-03-08T03:54:16.290Z,99498.98
2023-03-08T03:56:45.600Z,99497.59
2023-03-08T03:59:14.041Z,99488.85
2023-03-08T04:01:45.353Z,99492.77
2023-03-08T04:04:22.209Z,99491.91
2023-03-08T04:06:50.887Z,99493.95
2023-03-08T04:09:25.202Z,99490.33
2023-03-08T04:12:05.786Z,99491.35
2023-03-08T04:14:34.797Z,99489.47
2023-03-08T04:17:03.587Z,99486.39
2023-03-08T04:19:38.741Z,99489.98
2023-03-08T04:22:07.663Z,99488.60
2023-03-08T04:24:42.523Z,99489.11
2023-03-08T04:27:14.389Z,99489.13
2023-03-08T04:29:43.525Z,99496.48
2023-03-08T04:32:12.171Z,99497.67
2023-03-08T04:34:45.294Z,99490.80
2023-03-08T04:37:15.740Z,99478.12
2023-03-08T04:39:47.275Z,99469.19
2023-03-08T04:42:17.217Z,99477.77
2023-03-08T04:44:46.661Z,99482.53
2023-03-08T04:47:16.783Z,99486.97
2023-03-08T04:49:46.791Z,99493.80
2023-03-08T04:52:15.088Z,99498.23
2023-03-08T04:54:44.200Z,99500.98
2023-03-08T04:57:20.827Z,99497.70
2023-03-08T04:59:49.940Z,99497.48
2023-03-08T05:02:18.399Z,99499.38
2023-03-08T05:04:47.452Z,99503.30
2023-03-08T05:07:19.141Z,99505.70
2023-03-08T05:09:48.083Z,99504.66
2023-03-08T05:12:16.747Z,99505.53
2023-03-08T05:14:51.135Z,99497.30
2023-03-08T05:17:20.803Z,99497.30
2023-03-08T05:19:49.409Z,99497.50
2023-03-08T05:22:21.261Z,99494.08
2023-03-08T05:24:51.244Z,99490.00
2023-03-08T05:27:19.843Z,99495.33
2023-03-08T05:29:48.278Z,99497.23
2023-03-08T05:32:23.051Z,99502.05
2023-03-08T05:34:52.670Z,99499.48
2023-03-08T05:37:27.492Z,99494.67
2023-03-08T05:39:58.104Z,99496.21
2023-03-08T05:42:27.619Z,99488.13
2023-03-08T05:44:56.503Z,99489.30
2023-03-08T05:47:30.579Z,99497.20
2023-03-08T05:49:58.910Z,99498.71
2023-03-08T05:52:29.589Z,99501.93
2023-03-08T05:54:59.224Z,99508.45
2023-03-08T05:57:28.658Z,99509.77
2023-03-08T05:59:57.158Z,99507.53
2023-03-08T06:02:26.832Z,99513.69
2023-03-08T06:04:56.527Z,99514.02
2023-03-08T06:07:25.941Z,99513.30
2023-03-08T06:10:03.529Z,99516.02
2023-03-08T06:12:36.206Z,99513.76
2023-03-08T06:15:06.277Z,99514.09
2023-03-08T06:17:41.323Z,99504.27
2023-03-08T06:20:10.685Z,99504.25
2023-03-08T06:22:41.280Z,99505.09
2023-03-08T06:25:11.163Z,99504.73
2023-03-08T06:27:40.818Z,99499.39
2023-03-08T06:30:15.481Z,99500.22
2023-03-08T06:32:44.196Z,99501.23
2023-03-08T06:35:12.852Z,99501.40
2023-03-08T06:37:48.626Z,99499.34
2023-03-08T06:40:17.617Z,99505.70
2023-03-08T06:42:46.423Z,99510.38
2023-03-08T06:45:16.437Z,99511.44
2023-03-08T06:47:44.675Z,99511.98
2023-03-08T06:50:13.879Z,99502.02
2023-03-08T06:52:43.497Z,99507.70
2023-03-08T06:55:12.484Z,99519.39
2023-03-08T06:57:41.750Z,99521.41
2023-03-08T07:00:14.684Z,99514.69
2023-03-08T07:02:43.331Z,99491.80
2023-03-08T07:05:11.533Z,99489.86
2023-03-08T07:07:41.970Z,99511.50
2023-03-08T07:10:16.924Z,99506.67
2023-03-08T07:12:48.711Z,99491.73
2023-03-08T07:15:19.254Z,99492.26
2023-03-08T07:17:49.542Z,99493.33
2023-03-08T07:20:18.860Z,99493.50
2023-03-08T07:22:48.194Z,99483.71
2023-03-08T07:25:17.158Z,99501.24
2023-03-08T07:27:47.272Z,99489.70
2023-03-08T07:30:15.797Z,99484.02
2023-03-08T07:32:45.409Z,99466.15
2023-03-08T07:35:14.415Z,99469.27
2023-03-08T07:37:46.213Z,99464.64
2023-03-08T07:40:15.225Z,99473.40
2023-03-08T07:42:46.011Z,99451.89
2023-03-08T07:45:42.226Z,99439.30
2023-03-08T07:48:10.604Z,99432.42
2023-03-08T07:50:38.953Z,99445.02
2023-03-08T07:53:09.418Z,99448.38
2023-03-08T07:55:38.964Z,99453.94
2023-03-08T07:58:10.243Z,99449.69
2023-03-08T08:00:38.845Z,99457.29
2023-03-08T08:03:07.322Z,99460.27
2023-03-08T08:05:38.534Z,99452.17
2023-03-08T08:08:06.951Z,99449.37
2023-03-08T08:10:37.927Z,99455.23
2023-03-08T08:13:07.787Z,99453.14
2023-03-08T08:15:36.325Z,99453.64
2023-03-08T08:18:08.016Z,99447.84
2023-03-08T08:20:38.289Z,99447.60
2023-03-08T08:23:06.870Z,99450.05
2023-03-08T08:25:36.143Z,99449.09
2023-03-08T08:28:05.514Z,99448.70
2023-03-08T08:30:33.858Z,99450.36
2023-03-08T08:33:04.136Z,99451.82
2023-03-08T08:35:42.840Z,99457.11
2023-03-08T08:38:13.076Z,99469.32
2023-03-08T08:40:42.085Z,99464.80
2023-03-08T08:43:12.345Z,99458.94
2023-03-08T08:45:48.932Z,99459.66
2023-03-08T08:48:17.144Z,99456.99
2023-03-08T08:50:45.757Z,99454.08
2023-03-08T08:53:14.368Z,99450.95
2023-03-08T08:55:44.501Z,99443.88
2023-03-08T08:58:13.986Z,99440.81
2023-03-08T09:00:42.275Z,99445.80
2023-03-08T09:03:11.069Z,99452.22
2023-03-08T09:05:40.154Z,99454.80
2023-03-08T09:08:10.291Z,99459.38
2023-03-08T09:10:39.017Z,99458.32
2023-03-08T09:13:07.851Z,99459.91
2023-03-08T09:15:37.413Z,99457.98
2023-03-08T09:18:07.001Z,99453.40
2023-03-08T09:20:37.793Z,99443.66
2023-03-08T09:23:06.137Z,99436.90
2023-03-08T09:25:34.422Z,99432.35
2023-03-08T09:28:05.450Z,99437.16
2023-03-08T09:30:33.659Z,99437.59
2023-03-08T09:33:04.092Z,99433.19
2023-03-08T09:35:32.443Z,99425.69
2023-03-08T09:38:02.108Z,99429.90
2023-03-08T09:40:30.375Z,99425.73
2023-03-08T09:42:59.000Z,99414.06
2023-03-08T09:45:30.119Z,99410.41
2023-03-08T09:48:00.391Z,99408.59
2023-03-08T09:50:33.839Z,99399.53
2023-03-08T09:53:18.405Z,99396.90
2023-03-08T09:55:51.629Z,99400.64
2023-03-08T09:58:40.328Z,99389.25
2023-03-08T10:01:20.857Z,99394.94
2023-03-08T10:04:04.816Z,99390.41
2023-03-08T10:06:38.978Z,99389.66
2023-03-08T10:09:20.116Z,99385.61
2023-03-08T10:11:48.299Z,99381.41
2023-03-08T10:14:18.412Z,99371.98
2023-03-08T10:16:49.310Z,99368.23
2023-03-08T10:19:20.549Z,99366.23
2023-03-08T10:21:49.933Z,99365.33
2023-03-08T10:24:26.919Z,99360.17
2023-03-08T10:26:55.157Z,99351.23
2023-03-08T10:29:24.737Z,99345.21
2023-03-08T10:31:53.104Z,99341.94
2023-03-08T10:34:22.220Z,99341.23
2023-03-08T10:36:52.337Z,99336.40
2023-03-08T10:39:20.741Z,99335.38
2023-03-08T10:41:50.234Z,99330.64
2023-03-08T10:44:30.365Z,99329.11
2023-03-08T10:46:58.522Z,99328.15
2023-03-08T10:49:28.030Z,99319.77
2023-03-08T10:51:57.806Z,99322.02
2023-03-08T10:54:26.546Z,99314.81
2023-03-08T10:56:56.844Z,99313.23
2023-03-08T10:59:34.679Z,99308.08
2023-03-08T11:02:15.629Z,99298.05
2023-03-08T11:04:53.955Z,99306.38
2023-03-08T11:07:26.128Z,99301.31
2023-03-08T11:10:10.026Z,99301.52
2023-03-08T11:12:38.954Z,99298.59
2023-03-08T11:15:17.784Z,99296.80
2023-03-08T11:18:07.465Z,99301.75
2023-03-08T11:20:45.664Z,99296.98
2023-03-08T11:23:32.956Z,99297.94
2023-03-08T11:26:09.548Z,99305.69
2023-03-08T11:28:45.020Z,99307.27
2023-03-08T11:31:39.725Z,99301.25
2023-03-08T11:34:30.991Z,99301.69
2023-03-08T11:37:12.726Z,99302.63
2023-03-08T11:39:47.486Z,99297.30
2023-03-08T11:42:22.147Z,99298.21
2023-03-08T11:45:01.060Z,99298.42
2023-03-08T11:47:38.624Z,99294.56
2023-03-08T11:50:31.733Z,99293.58
2023-03-08T11:53:17.448Z,99297.50
2023-03-08T11:55:58.304Z,99294.45
2023-03-08T11:58:35.146Z,99288.54
2023-03-08T12:01:06.306Z,99283.64
2023-03-08T12:03:35.518Z,99287.70
2023-03-08T12:06:26.471Z,99295.14
2023-03-08T12:09:01.426Z,99302.45
2023-03-08T12:11:38.984Z,99294.91
2023-03-08T12:14:19.320Z,99296.84
2023-03-08T12:16:49.254Z,99298.55
2023-03-08T12:19:29.775Z,99292.23
2023-03-08T12:22:16.847Z,99295.03
2023-03-08T12:25:04.616Z,99295.48
2023-03-08T12:27:36.869Z,99296.35
2023-03-08T12:30:11.997Z,99300.25
2023-03-08T12:32:56.427Z,99295.94
2023-03-08T12:35:30.008Z,99293.94
2023-03-08T12:37:59.792Z,99291.73
2023-03-08T12:40:28.503Z,99294.42
2023-03-08T12:43:07.055Z,99292.70
2023-03-08T12:45:35.484Z,99290.91
2023-03-08T12:48:06.909Z,99292.23
2023-03-08T12:50:40.991Z,99292.08
2023-03-08T12:53:28.439Z,99290.98
2023-03-08T12:56:03.726Z,99297.48
2023-03-08T12:58:34.973Z,99292.46
2023-03-08T13:01:04.895Z,99290.65
2023-03-08T13:03:38.981Z,99292.23
2023-03-08T13:06:22.845Z,99293.83
2023-03-08T13:08:53.394Z,99293.39
2023-03-08T13:11:24.929Z,99301.58
2023-03-08T13:13:56.759Z,99293.69
2023-03-08T13:16:25.070Z,99297.17
2023-03-08T13:19:01.783Z,99293.23
2023-03-08T13:21:35.358Z,99294.87
2023-03-08T13:24:20.940Z,99292.52
2023-03-08T13:27:01.576Z,99292.85
2023-03-08T13:29:30.901Z,99288.80
2023-03-08T13:32:06.297Z,99289.84
2023-03-08T13:34:35.464Z,99288.89
2023-03-08T13:37:04.784Z,99284.88
2023-03-08T13:39:33.155Z,99283.44
2023-03-08T13:42:08.559Z,99282.20
2023-03-08T13:44:37.064Z,99282.41
2023-03-08T13:47:10.275Z,99281.00
2023-03-08T13:49:42.253Z,99281.58
2023-03-08T13:52:30.127Z,99278.29
2023-03-08T13:54:59.242Z,99276.90
2023-03-08T13:57:28.143Z,99273.76
2023-03-08T14:00:00.778Z,99269.40
2023-03-08T14:02:29.769Z,99276.45
2023-03-08T14:04:58.517Z,99270.70
2023-03-08T14:07:28.908Z,99269.59
2023-03-08T14:09:57.294Z,99268.40
2023-03-08T14:12:26.627Z,99264.92
2023-03-08T14:15:01.657Z,99262.46
2023-03-08T14:17:30.882Z,99261.05
2023-03-08T14:20:00.566Z,99260.48
2023-03-08T14:22:39.187Z,99260.64
2023-03-08T14:25:20.799Z,99261.17
2023-03-08T14:27:49.036Z,99259.63
2023-03-08T14:30:17.890Z,99257.74
2023-03-08T14:32:58.613Z,99258.44
2023-03-08T14:35:30.903Z,99257.45
2023-03-08T14:37:59.226Z,99259.06
2023-03-08T14:40:28.762Z,99263.27
2023-03-08T14:43:04.842Z,99261.59
2023-03-08T14:45:50.491Z,99262.95
2023-03-08T14:48:25.917Z,99262.70
2023-03-08T14:50:57.945Z,99261.98
2023-03-08T14:53:30.386Z,99263.02
2023-03-08T14:56:00.485Z,99262.08
2023-03-08T14:58:32.371Z,99258.57
2023-03-08T15:01:01.528Z,99258.02
2023-03-08T15:03:30.285Z,99254.95
2023-03-08T15:05:58.889Z,99259.05
2023-03-08T15:08:29.534Z,99265.38
2023-03-08T15:10:57.900Z,99263.52
2023-03-08T15:13:27.554Z,99263.91
2023-03-08T15:15:55.695Z,99261.70
2023-03-08T15:18:24.881Z,99263.67
2023-03-08T15:20:53.077Z,99263.88
2023-03-08T15:23:25.008Z,99263.56
2023-03-08T15:25:53.141Z,99263.10
2023-03-08T15:28:21.757Z,99266.45
2023-03-08T15:30:52.908Z,99267.15
2023-03-08T15:33:21.817Z,99267.67
2023-03-08T15:35:50.427Z,99271.85
2023-03-08T15:38:18.779Z,99274.27
2023-03-08T15:40:47.276Z,99273.41
2023-03-08T15:43:16.492Z,99286.55
2023-03-08T15:45:45.027Z,99283.92
2023-03-08T15:48:14.338Z,99287.79
2023-03-08T15:50:43.166Z,99284.84
2023-03-08T15:53:23.305Z,99288.75
2023-03-08T15:55:58.292Z,99285.95
2023-03-08T15:58:28.230Z,99287.84
2023-03-08T16:00:56.654Z,99287.34
2023-03-08T16:03:31.069Z,99289.34
2023-03-08T16:05:59.910Z,99291.11
2023-03-08T16:08:29.143Z,99290.33
2023-03-08T16:11:03.902Z,99290.65
2023-03-08T16:13:34.284Z,99291.13
2023-03-08T16:16:03.428Z,99295.14
2023-03-08T16:18:32.044Z,99297.48
2023-03-08T16:21:00.211Z,99298.33
2023-03-08T16:23:28.407Z,99303.26
2023-03-08T16:26:14.623Z,99305.56
2023-03-08T16:28:46.260Z,99304.23
2023-03-08T16:31:14.910Z,99306.78
2023-03-08T16:33:43.381Z,99308.36
2023-03-08T16:36:11.949Z,99307.30
2023-03-08T16:38:43.381Z,99302.90
2023-03-08T16:41:14.125Z,99306.09
2023-03-08T16:43:48.766Z,99305.30
2023-03-08T16:46:19.497Z,99312.13
2023-03-08T16:48:53.608Z,99310.54
2023-03-08T16:51:24.116Z,99310.33
2023-03-08T16:53:52.365Z,99309.99
2023-03-08T16:56:22.381Z,99312.97
2023-03-08T16:58:50.833Z,99305.91
2023-03-08T17:01:26.615Z,99313.58
2023-03-08T17:03:55.488Z,99310.24
2023-03-08T17:06:25.084Z,99313.20
2023-03-08T17:08:53.353Z,99315.25
2023-03-08T17:11:23.263Z,99314.38
2023-03-08T17:13:55.581Z,99321.16
2023-03-08T17:16:25.704Z,99318.98
2023-03-08T17:18:55.028Z,99320.47
2023-03-08T17:21:23.609Z,99317.44
2023-03-08T17:23:53.611Z,99316.86
2023-03-08T17:26:22.751Z,99310.58
2023-03-08T17:28:51.442Z,99317.63
2023-03-08T17:31:21.006Z,99316.51
2023-03-08T17:33:49.676Z,99315.55
2023-03-08T17:36:22.493Z,99319.13
2023-03-08T17:38:53.628Z,99317.20
2023-03-08T17:41:26.163Z,99314.89
2023-03-08T17:43:54.377Z,99321.05
2023-03-08T17:46:23.437Z,99317.00
2023-03-08T17:48:53.401Z,99319.20
2023-03-08T17:51:27.846Z,99314.52
2023-03-08T17:53:58.257Z,99320.19
2023-03-08T17:56:29.713Z,99317.24
2023-03-08T17:59:03.095Z,99316.84
2023-03-08T18:01:32.027Z,99321.64
2023-03-08T18:04:00.545Z,99314.19
2023-03-08T18:06:38.840Z,99326.58
2023-03-08T18:09:08.317Z,99326.00
2023-03-08T18:11:38.065Z,99327.19
2023-03-08T18:14:06.649Z,99326.36
2023-03-08T18:16:35.067Z,99325.66
2023-03-08T18:19:08.005Z,99323.23
2023-03-08T18:21:40.860Z,99325.94
2023-03-08T18:24:13.568Z,99325.89
2023-03-08T18:26:42.242Z,99325.86
2023-03-08T18:29:12.649Z,99321.16
2023-03-08T18:31:41.717Z,99323.33
2023-03-08T18:34:10.621Z,99317.91
2023-03-08T18:36:39.062Z,99314.58
2023-03-08T18:39:08.197Z,99314.13
2023-03-08T18:41:36.616Z,99314.34
2023-03-08T18:44:10.763Z,99313.04
2023-03-08T18:46:39.685Z,99310.35
2023-03-08T18:49:08.820Z,99318.71
2023-03-08T18:51:37.638Z,99325.16
2023-03-08T18:54:09.273Z,99332.16
2023-03-08T18:56:38.910Z,99330.17
2023-03-08T18:59:07.457Z,99331.64
2023-03-08T19:01:36.858Z,99335.52
2023-03-08T19:04:06.464Z,99337.34
2023-03-08T19:06:35.672Z,99340.88
2023-03-08T19:09:07.790Z,99346.84
2023-03-08T19:11:36.542Z,99347.28
2023-03-08T19:14:05.245Z,99352.86
2023-03-08T19:16:35.266Z,99355.16
2023-03-08T19:19:10.400Z,99356.41
2023-03-08T19:21:41.475Z,99352.27
2023-03-08T19:24:11.223Z,99353.45
2023-03-08T19:26:41.186Z,99354.84
2023-03-08T19:29:13.091Z,99358.01
2023-03-08T19:31:42.824Z,99356.41
2023-03-08T19:34:11.239Z,99360.02
2023-03-08T19:36:43.768Z,99361.03
2023-03-08T19:39:16.020Z,99359.99
2023-03-08T19:41:44.888Z,99354.92
2023-03-08T19:44:13.230Z,99355.15
2023-03-08T19:46:42.952Z,99353.66
2023-03-08T19:49:12.662Z,99354.77
2023-03-08T19:51:41.022Z,99354.67
2023-03-08T19:54:09.610Z,99357.70
2023-03-08T19:56:38.408Z,99362.28
2023-03-08T19:59:09.048Z,99364.42
2023-03-08T20:01:37.990Z,99368.45
2023-03-08T20:04:06.524Z,99367.48
2023-03-08T20:06:35.684Z,99360.83
2023-03-08T20:09:04.442Z,99366.23
2023-03-08T20:11:33.133Z,99375.57
2023-03-08T20:14:03.943Z,99372.36
2023-03-08T20:16:33.099Z,99372.59
2023-03-08T20:19:01.981Z,99366.41
2023-03-08T20:21:36.869Z,99372.33
2023-03-08T20:24:06.599Z,99374.61
2023-03-08T20:26:35.382Z,99366.41
2023-03-08T20:29:03.820Z,99369.75
2023-03-08T20:31:32.441Z,99373.23
2023-03-08T20:34:00.892Z,99371.58
2023-03-08T20:36:34.428Z,99364.70
2023-03-08T20:39:03.161Z,99368.37
2023-03-08T20:41:32.072Z,99369.95
2023-03-08T20:44:00.436Z,99372.90
2023-03-08T20:46:33.475Z,99368.27
2023-03-08T20:49:02.334Z,99366.38
2023-03-08T20:51:31.240Z,99370.31
2023-03-08T20:53:59.755Z,99374.39
2023-03-08T20:56:28.349Z,99368.63
2023-03-08T20:58:57.002Z,99371.68
2023-03-08T21:01:26.491Z,99370.62
2023-03-08T21:03:55.087Z,99366.92
2023-03-08T21:06:24.739Z,99359.30
2023-03-08T21:08:54.353Z,99357.91
2023-03-08T21:11:22.677Z,99356.70
2023-03-08T21:13:51.221Z,99352.92
2023-03-08T21:16:20.080Z,99351.23
2023-03-08T21:18:52.556Z,99354.39
2023-03-08T21:21:27.221Z,99360.66
2023-03-08T21:23:55.769Z,99366.52
2023-03-08T21:26:25.806Z,99369.61
2023-03-08T21:28:55.391Z,99372.46
2023-03-08T21:31:23.795Z,99370.84
2023-03-08T21:33:53.686Z,99371.48
2023-03-08T21:36:26.212Z,99362.46
2023-03-08T21:38:55.081Z,99356.11
2023-03-08T21:41:24.263Z,99369.54
2023-03-08T21:43:52.654Z,99363.30
2023-03-08T21:46:21.509Z,99354.70
2023-03-08T21:48:49.957Z,99352.55
2023-03-08T21:51:18.261Z,99346.48
2023-03-08T21:53:47.343Z,99349.04
2023-03-08T21:56:16.091Z,99348.48
2023-03-08T21:58:45.566Z,99354.60
2023-03-08T22:01:21.532Z,99361.36
2023-03-08T22:03:51.143Z,99359.45
2023-03-08T22:06:19.539Z,99353.58
2023-03-08T22:08:49.899Z,99352.00
2023-03-08T22:11:18.493Z,99352.67
2023-03-08T22:13:50.779Z,99356.98
2023-03-08T22:16:19.458Z,99353.61
2023-03-08T22:18:48.989Z,99347.73
2023-03-08T22:21:17.147Z,99349.14
2023-03-08T22:23:45.542Z,99354.02
2023-03-08T22:26:13.798Z,99355.31
2023-03-08T22:28:43.162Z,99353.95
2023-03-08T22:31:20.131Z,99354.63
2023-03-08T22:33:49.813Z,99355.95
2023-03-08T22:36:24.117Z,99358.94
2023-03-08T22:38:52.522Z,99355.92
2023-03-08T22:41:21.752Z,99359.08
2023-03-08T22:43:50.126Z,99361.50
2023-03-08T22:46:19.837Z,99360.15
2023-03-08T22:48:57.750Z,99353.66
2023-03-08T22:51:27.829Z,99342.70
2023-03-08T22:53:56.548Z,99338.59
2023-03-08T22:56:25.832Z,99336.88
2023-03-08T22:58:56.173Z,99334.30
2023-03-08T23:01:24.623Z,99329.98
2023-03-08T23:03:53.861Z,99332.34
2023-03-08T23:06:22.207Z,99332.12
2023-03-08T23:08:50.711Z,99325.07
2023-03-08T23:11:22.750Z,99321.58
2023-03-08T23:13:51.009Z,99316.55
2023-03-08T23:16:19.726Z,99311.35
2023-03-08T23:18:48.453Z,99305.50
2023-03-08T23:21:17.413Z,99297.76
2023-03-08T23:23:46.172Z,99294.64
2023-03-08T23:26:16.494Z,99294.13
2023-03-08T23:28:45.105Z,99291.54
2023-03-08T23:31:16.431Z,99294.95
2023-03-08T23:33:45.719Z,99289.44
2023-03-08T23:36:14.571Z,99287.86
2023-03-08T23:38:43.290Z,99278.53
2023-03-08T23:41:12.760Z,99270.27
2023-03-08T23:43:41.394Z,99274.20
2023-03-08T23:46:10.926Z,99272.66
2023-03-08T23:48:46.937Z,99268.55
2023-03-08T23:51:16.293Z,99270.64
2023-03-08T23:53:44.588Z,99266.02
2023-03-08T23:56:20.083Z,99267.94
2023-03-08T23:58:49.330Z,99267.96
